Time;durP1;ratioP1;P1;durP2;ratioP2;P2;SDS_P1;SDS_P2;PMS_P1;PMS_P2;Temp;Humidity;BMP_temperature;BMP_pressure;BME280_temperature;BME280_humidity;BME280_pressure;Samples;Min_cycle;Max_cycle;Signal;HPM_P1;HPM_P2
2023/08/16 00:01:58;;;;;;;8.27;5.63;;;;;;;;;;5059232;28;20232;-65
2023/08/16 00:04:25;;;;;;;8.32;6.03;;;;;;;;;;5057148;28;20206;-67
2023/08/16 00:06:52;;;;;;;5.55;5.05;;;;;;;;;;5053059;28;20345;-66
2023/08/16 00:09:20;;;;;;;5.25;4.60;;;;;;;;;;5053842;28;20746;-66
2023/08/16 00:11:48;;;;;;;5.50;5.03;;;;;;;;;;5058660;28;20225;-65
2023/08/16 00:14:15;;;;;;;9.65;7.20;;;;;;;;;;5061217;28;20205;-66
2023/08/16 00:16:42;;;;;;;8.07;6.43;;;;;;;;;;5056540;28;20263;-67
2023/08/16 00:19:10;;;;;;;7.38;5.95;;;;;;;;;;5058920;28;20207;-67
2023/08/16 00:21:37;;;;;;;7.00;6.30;;;;;;;;;;5065822;28;20201;-67
2023/08/16 00:24:05;;;;;;;6.13;5.50;;;;;;;;;;5062626;28;20576;-66
2023/08/16 00:26:32;;;;;;;6.00;5.00;;;;;;;;;;5055887;28;20779;-66
2023/08/16 00:29:00;;;;;;;8.30;5.18;;;;;;;;;;5058445;28;20613;-67
2023/08/16 00:31:27;;;;;;;5.68;5.10;;;;;;;;;;5057613;28;20702;-66
2023/08/16 00:33:55;;;;;;;5.22;4.82;;;;;;;;;;5056005;28;20214;-66
2023/08/16 00:36:22;;;;;;;8.32;5.20;;;;;;;;;;5064033;28;20275;-66
2023/08/16 00:38:49;;;;;;;5.75;5.25;;;;;;;;;;5062192;28;20248;-66
2023/08/16 00:41:17;;;;;;;7.00;5.35;;;;;;;;;;5058847;28;20202;-66
2023/08/16 00:43:44;;;;;;;5.88;4.97;;;;;;;;;;5059580;28;20831;-66
2023/08/16 00:46:12;;;;;;;7.50;5.82;;;;;;;;;;5056971;28;20225;-66
2023/08/16 00:48:41;;;;;;;6.10;5.50;;;;;;;;;;5058421;28;20212;-66
2023/08/16 00:51:09;;;;;;;8.40;5.50;;;;;;;;;;5059950;28;20753;-67
2023/08/16 00:53:37;;;;;;;5.57;5.07;;;;;;;;;;5058179;28;20632;-65
2023/08/16 00:56:05;;;;;;;6.55;5.72;;;;;;;;;;5060162;28;20229;-66
2023/08/16 00:58:33;;;;;;;7.18;6.25;;;;;;;;;;5054730;28;20324;-66
2023/08/16 01:01:00;;;;;;;5.97;5.38;;;;;;;;;;5059136;28;20201;-66
2023/08/16 01:03:27;;;;;;;7.00;5.55;;;;;;;;;;5061145;28;20202;-66
2023/08/16 01:05:55;;;;;;;10.95;6.25;;;;;;;;;;5055632;28;20257;-66
2023/08/16 01:08:22;;;;;;;6.78;5.95;;;;;;;;;;5056469;28;20587;-67
2023/08/16 01:11:20;;;;;;;6.82;5.82;;;;;;;;;;5056934;28;20210;-66
2023/08/16 01:13:55;;;;;;;6.85;6.00;;;;;;;;;;5054842;28;20209;-65
2023/08/16 01:16:23;;;;;;;9.10;5.80;;;;;;;;;;5055868;28;20225;-65
2023/08/16 01:18:51;;;;;;;8.90;6.55;;;;;;;;;;5057754;28;20198;-66
2023/08/16 01:21:20;;;;;;;7.80;5.72;;;;;;;;;;5056224;28;20201;-65
2023/08/16 01:23:58;;;;;;;6.15;5.57;;;;;;;;;;5060339;28;20205;-65
2023/08/16 01:26:35;;;;;;;7.43;5.43;;;;;;;;;;5054406;28;20493;-65
2023/08/16 01:29:03;;;;;;;5.60;5.10;;;;;;;;;;5052468;28;20217;-65
2023/08/16 01:31:32;;;;;;;8.05;6.10;;;;;;;;;;5063600;28;20217;-65
2023/08/16 01:33:59;;;;;;;6.72;5.72;;;;;;;;;;5057950;28;20202;-65
2023/08/16 01:36:27;;;;;;;6.82;5.75;;;;;;;;;;5055456;28;20687;-65
2023/08/16 01:38:55;;;;;;;7.10;6.40;;;;;;;;;;5055739;28;20202;-65
2023/08/16 01:41:32;;;;;;;5.68;5.18;;;;;;;;;;5074717;28;20202;-66
2023/08/16 01:43:59;;;;;;;5.35;4.85;;;;;;;;;;5055917;28;20212;-65
2023/08/16 01:46:28;;;;;;;5.00;4.50;;;;;;;;;;5051993;28;20240;-66
2023/08/16 01:48:56;;;;;;;5.53;4.85;;;;;;;;;;5059611;28;20235;-67
2023/08/16 01:51:24;;;;;;;8.18;5.30;;;;;;;;;;5054444;28;20222;-66
2023/08/16 01:53:54;;;;;;;5.43;4.90;;;;;;;;;;5057056;28;20198;-65
2023/08/16 01:56:22;;;;;;;6.03;5.05;;;;;;;;;;5052641;28;20229;-65
2023/08/16 01:58:50;;;;;;;7.60;5.90;;;;;;;;;;5059562;28;20713;-66
2023/08/16 02:01:17;;;;;;;6.70;5.43;;;;;;;;;;5054996;28;20262;-66
2023/08/16 02:03:45;;;;;;;6.03;5.43;;;;;;;;;;5059015;28;20636;-65
2023/08/16 02:06:12;;;;;;;7.20;5.82;;;;;;;;;;5058422;28;20228;-66
2023/08/16 02:08:39;;;;;;;5.75;5.25;;;;;;;;;;5053990;28;20205;-66
2023/08/16 02:11:07;;;;;;;6.45;5.85;;;;;;;;;;5055425;28;20226;-66
2023/08/16 02:13:34;;;;;;;7.28;5.60;;;;;;;;;;5055150;28;20710;-66
2023/08/16 02:16:04;;;;;;;6.85;5.90;;;;;;;;;;5058496;28;20283;-66
2023/08/16 02:18:32;;;;;;;6.30;5.80;;;;;;;;;;5063220;28;20201;-66
2023/08/16 02:20:59;;;;;;;6.78;6.07;;;;;;;;;;5059278;28;20221;-66
2023/08/16 02:23:26;;;;;;;6.82;6.03;;;;;;;;;;5059408;28;20210;-65
2023/08/16 02:25:54;;;;;;;8.35;6.45;;;;;;;;;;5059873;28;20243;-66
2023/08/16 02:28:21;;;;;;;7.28;6.57;;;;;;;;;;5059861;28;20409;-65
2023/08/16 02:30:48;;;;;;;6.90;6.30;;;;;;;;;;5056640;28;20226;-65
2023/08/16 02:33:15;;;;;;;6.72;6.03;;;;;;;;;;5058457;28;20667;-65
2023/08/16 02:35:43;;;;;;;7.93;5.68;;;;;;;;;;5060626;28;20663;-64
2023/08/16 02:38:10;;;;;;;6.05;5.45;;;;;;;;;;5059816;28;20774;-66
2023/08/16 02:40:38;;;;;;;7.15;5.85;;;;;;;;;;5061870;28;20205;-66
2023/08/16 02:43:06;;;;;;;8.75;5.80;;;;;;;;;;5062881;28;20763;-66
2023/08/16 02:45:35;;;;;;;8.00;5.78;;;;;;;;;;5060310;28;20203;-66
2023/08/16 02:48:02;;;;;;;6.65;5.90;;;;;;;;;;5058771;28;20639;-65
2023/08/16 02:50:29;;;;;;;6.55;6.05;;;;;;;;;;5056876;28;20280;-66
2023/08/16 02:52:57;;;;;;;6.32;5.72;;;;;;;;;;5057813;28;20695;-64
2023/08/16 02:55:24;;;;;;;5.82;5.30;;;;;;;;;;5061881;28;20198;-64
2023/08/16 02:57:52;;;;;;;6.95;5.35;;;;;;;;;;5060601;28;20628;-66
2023/08/16 03:00:20;;;;;;;6.50;5.63;;;;;;;;;;5059964;28;20198;-66
2023/08/16 03:02:47;;;;;;;10.43;5.88;;;;;;;;;;5059703;28;20206;-66
2023/08/16 03:05:14;;;;;;;6.80;5.03;;;;;;;;;;5055173;28;20312;-65
2023/08/16 03:07:42;;;;;;;5.88;5.28;;;;;;;;;;5060882;28;20663;-67
2023/08/16 03:10:09;;;;;;;6.32;5.70;;;;;;;;;;5055420;28;20221;-65
2023/08/16 03:12:37;;;;;;;6.53;5.82;;;;;;;;;;5059252;28;20299;-66
2023/08/16 03:15:04;;;;;;;7.80;6.22;;;;;;;;;;5063272;28;20564;-65
2023/08/16 03:17:31;;;;;;;5.93;5.43;;;;;;;;;;5060213;28;20267;-67
2023/08/16 03:19:59;;;;;;;6.80;6.03;;;;;;;;;;5057958;28;20271;-65
2023/08/16 03:22:26;;;;;;;6.53;6.03;;;;;;;;;;5058205;28;20205;-67
2023/08/16 03:24:53;;;;;;;7.45;5.82;;;;;;;;;;5054331;28;20256;-66
2023/08/16 03:27:21;;;;;;;6.32;5.82;;;;;;;;;;5057996;28;20229;-66
2023/08/16 03:29:48;;;;;;;6.47;5.88;;;;;;;;;;5057584;28;20259;-65
2023/08/16 03:32:16;;;;;;;7.90;6.03;;;;;;;;;;5059500;28;20236;-65
2023/08/16 03:34:43;;;;;;;7.75;5.93;;;;;;;;;;5063003;28;20198;-65
2023/08/16 03:37:10;;;;;;;7.15;5.93;;;;;;;;;;5056822;28;20707;-65
2023/08/16 03:39:37;;;;;;;7.85;6.80;;;;;;;;;;5061055;28;20206;-66
2023/08/16 03:42:05;;;;;;;8.95;6.22;;;;;;;;;;5057112;28;20222;-66
2023/08/16 03:44:32;;;;;;;6.88;6.22;;;;;;;;;;5051908;28;20256;-66
2023/08/16 03:46:59;;;;;;;6.60;5.90;;;;;;;;;;5059145;28;20228;-66
2023/08/16 03:49:27;;;;;;;6.70;5.90;;;;;;;;;;5057053;28;20210;-66
2023/08/16 03:51:54;;;;;;;8.57;6.25;;;;;;;;;;5059959;28;20221;-65
2023/08/16 03:54:21;;;;;;;6.10;5.60;;;;;;;;;;5058411;28;20259;-65
2023/08/16 03:56:48;;;;;;;5.50;5.00;;;;;;;;;;5055115;28;20757;-65
2023/08/16 03:59:16;;;;;;;6.47;5.22;;;;;;;;;;5057227;28;20236;-66
2023/08/16 04:01:43;;;;;;;7.22;6.55;;;;;;;;;;5056108;28;20589;-65
2023/08/16 04:04:10;;;;;;;8.25;6.80;;;;;;;;;;5056881;28;20201;-66
2023/08/16 04:06:39;;;;;;;6.88;6.18;;;;;;;;;;5059176;28;20248;-67
2023/08/16 04:09:06;;;;;;;7.65;6.47;;;;;;;;;;5054728;28;20336;-65
2023/08/16 04:11:34;;;;;;;7.05;6.45;;;;;;;;;;5056455;28;20229;-66
2023/08/16 04:14:01;;;;;;;7.63;6.57;;;;;;;;;;5052387;28;20206;-65
2023/08/16 04:16:29;;;;;;;9.38;7.30;;;;;;;;;;5057743;28;20214;-66
2023/08/16 04:18:56;;;;;;;7.80;7.10;;;;;;;;;;5057251;28;20201;-65
2023/08/16 04:21:23;;;;;;;7.90;7.20;;;;;;;;;;5057774;28;20202;-66
2023/08/16 04:23:50;;;;;;;7.80;7.05;;;;;;;;;;5056164;28;20224;-66
2023/08/16 04:26:18;;;;;;;7.30;6.70;;;;;;;;;;5060460;28;20240;-67
2023/08/16 04:28:45;;;;;;;9.05;8.25;;;;;;;;;;5051434;28;20890;-66
2023/08/16 04:31:12;;;;;;;8.25;7.45;;;;;;;;;;5059386;28;20772;-66
2023/08/16 04:33:40;;;;;;;8.43;6.93;;;;;;;;;;5056780;28;20209;-64
2023/08/16 04:36:07;;;;;;;7.93;7.22;;;;;;;;;;5057086;28;20233;-66
2023/08/16 04:38:34;;;;;;;8.23;6.53;;;;;;;;;;5062706;28;20200;-65
2023/08/16 04:41:01;;;;;;;5.72;5.20;;;;;;;;;;5057091;28;20221;-67
2023/08/16 04:43:29;;;;;;;5.18;4.78;;;;;;;;;;5052561;28;20835;-66
2023/08/16 04:45:56;;;;;;;5.57;4.68;;;;;;;;;;5057593;28;20236;-66
2023/08/16 04:48:24;;;;;;;7.43;5.03;;;;;;;;;;5057338;28;20669;-66
2023/08/16 04:50:51;;;;;;;8.55;5.70;;;;;;;;;;5060881;28;20579;-66
2023/08/16 04:53:19;;;;;;;9.45;5.57;;;;;;;;;;5056923;28;20252;-66
2023/08/16 04:55:46;;;;;;;6.43;5.85;;;;;;;;;;5058136;28;20575;-66
2023/08/16 04:58:13;;;;;;;6.50;5.90;;;;;;;;;;5060435;28;20283;-66
2023/08/16 05:00:41;;;;;;;7.30;6.60;;;;;;;;;;5060660;28;20198;-66
2023/08/16 05:03:08;;;;;;;9.27;7.45;;;;;;;;;;5058815;28;20732;-66
2023/08/16 05:05:35;;;;;;;8.60;7.20;;;;;;;;;;5057760;28;20197;-66
2023/08/16 05:08:03;;;;;;;9.23;8.32;;;;;;;;;;5055316;28;20700;-66
2023/08/16 05:10:30;;;;;;;10.50;9.55;;;;;;;;;;5054402;28;20201;-66
2023/08/16 05:12:57;;;;;;;13.23;11.48;;;;;;;;;;5055720;28;20230;-66
2023/08/16 05:15:25;;;;;;;15.13;12.55;;;;;;;;;;5059467;28;20198;-67
2023/08/16 05:17:53;;;;;;;13.50;12.10;;;;;;;;;;5061055;28;20226;-66
2023/08/16 05:20:20;;;;;;;15.00;13.40;;;;;;;;;;5058216;28;20202;-66
2023/08/16 05:22:48;;;;;;;15.68;14.07;;;;;;;;;;5060036;28;20209;-66
2023/08/16 05:25:15;;;;;;;16.75;15.00;;;;;;;;;;5057488;28;20258;-66
2023/08/16 05:27:42;;;;;;;18.05;16.25;;;;;;;;;;5062208;28;20796;-66
2023/08/16 05:30:10;;;;;;;17.58;15.73;;;;;;;;;;5053083;28;20210;-66
2023/08/16 05:32:37;;;;;;;19.05;17.02;;;;;;;;;;5056329;28;20652;-66
2023/08/16 05:35:05;;;;;;;25.10;18.17;;;;;;;;;;5058677;28;20205;-66
2023/08/16 05:37:32;;;;;;;19.13;17.13;;;;;;;;;;5055206;28;20288;-66
2023/08/16 05:39:59;;;;;;;17.73;15.90;;;;;;;;;;5055673;28;20271;-66
2023/08/16 05:42:28;;;;;;;16.77;15.07;;;;;;;;;;5056662;28;20210;-66
2023/08/16 05:44:56;;;;;;;16.90;15.10;;;;;;;;;;5057264;28;20256;-66
2023/08/16 05:47:23;;;;;;;16.60;14.88;;;;;;;;;;5053523;28;20237;-66
2023/08/16 05:49:51;;;;;;;17.45;14.05;;;;;;;;;;5054512;28;20410;-66
2023/08/16 05:52:18;;;;;;;39.90;14.82;;;;;;;;;;5055394;28;20238;-67
2023/08/16 05:54:45;;;;;;;18.25;14.50;;;;;;;;;;5058098;28;20194;-69
2023/08/16 05:57:13;;;;;;;14.35;12.85;;;;;;;;;;5058759;28;20232;-67
2023/08/16 05:59:40;;;;;;;14.82;13.15;;;;;;;;;;5057971;28;20198;-69
2023/08/16 06:02:07;;;;;;;14.82;13.25;;;;;;;;;;5056714;28;20209;-65
2023/08/16 06:04:35;;;;;;;14.63;12.20;;;;;;;;;;5059103;28;20209;-66
2023/08/16 06:07:03;;;;;;;12.75;11.43;;;;;;;;;;5055623;28;20229;-67
2023/08/16 06:09:31;;;;;;;12.65;11.50;;;;;;;;;;5057790;28;20255;-66
2023/08/16 06:12:00;;;;;;;12.55;11.38;;;;;;;;;;5056815;28;20221;-71
2023/08/16 06:14:27;;;;;;;11.02;9.93;;;;;;;;;;5049318;28;20721;-66
2023/08/16 06:16:54;;;;;;;9.65;8.55;;;;;;;;;;5061061;28;20214;-69
2023/08/16 06:19:22;;;;;;;9.10;8.20;;;;;;;;;;5061312;28;20221;-66
2023/08/16 06:21:49;;;;;;;9.95;7.28;;;;;;;;;;5053926;28;20213;-67
2023/08/16 06:24:17;;;;;;;9.82;7.20;;;;;;;;;;5059815;28;20652;-69
2023/08/16 06:26:44;;;;;;;10.75;6.32;;;;;;;;;;5060285;28;20229;-66
2023/08/16 06:29:11;;;;;;;9.73;6.47;;;;;;;;;;5053818;28;20259;-67
2023/08/16 06:31:39;;;;;;;8.80;6.35;;;;;;;;;;5061290;28;20300;-67
2023/08/16 06:34:06;;;;;;;7.05;5.97;;;;;;;;;;5061907;28;20201;-66
2023/08/16 06:36:33;;;;;;;8.95;6.32;;;;;;;;;;5056601;28;20246;-68
2023/08/16 06:39:00;;;;;;;7.10;5.78;;;;;;;;;;5054668;28;20943;-70
2023/08/16 06:41:28;;;;;;;6.75;5.65;;;;;;;;;;5053892;28;20220;-66
2023/08/16 06:43:55;;;;;;;5.60;5.00;;;;;;;;;;5061310;28;20621;-68
2023/08/16 06:46:23;;;;;;;5.13;4.63;;;;;;;;;;5053402;28;20217;-69
2023/08/16 06:48:50;;;;;;;9.23;6.20;;;;;;;;;;5052730;28;20203;-69
2023/08/16 06:51:18;;;;;;;6.68;4.80;;;;;;;;;;5061976;28;20288;-67
2023/08/16 06:53:45;;;;;;;5.97;5.38;;;;;;;;;;5054739;28;20222;-69
2023/08/16 06:56:13;;;;;;;7.70;6.25;;;;;;;;;;5053232;28;20728;-67
2023/08/16 06:58:43;;;;;;;5.82;5.18;;;;;;;;;;5057604;28;20362;-67
2023/08/16 07:01:11;;;;;;;12.98;9.00;;;;;;;;;;5061287;28;20213;-68
2023/08/16 07:03:39;;;;;;;18.38;12.98;;;;;;;;;;5057714;28;20209;-69
2023/08/16 07:06:06;;;;;;;10.10;6.60;;;;;;;;;;5061372;28;20230;-67
2023/08/16 07:08:34;;;;;;;9.50;6.50;;;;;;;;;;5061921;28;20209;-66
2023/08/16 07:11:03;;;;;;;6.75;6.10;;;;;;;;;;5058737;28;20306;-67
2023/08/16 07:13:30;;;;;;;7.22;6.53;;;;;;;;;;5059014;28;20307;-65
2023/08/16 07:15:57;;;;;;;10.23;6.78;;;;;;;;;;5057971;28;20291;-66
2023/08/16 07:18:25;;;;;;;7.18;5.97;;;;;;;;;;5060669;28;20281;-65
2023/08/16 07:20:52;;;;;;;9.13;6.35;;;;;;;;;;5067521;28;20584;-66
2023/08/16 07:23:19;;;;;;;7.72;5.68;;;;;;;;;;5057795;28;20210;-65
2023/08/16 07:25:46;;;;;;;6.50;5.90;;;;;;;;;;5064421;28;20563;-69
2023/08/16 07:28:14;;;;;;;6.20;5.60;;;;;;;;;;5058793;28;20217;-68
2023/08/16 07:30:41;;;;;;;7.40;6.13;;;;;;;;;;5058259;28;20198;-66
2023/08/16 07:33:09;;;;;;;5.95;5.05;;;;;;;;;;5061878;28;20287;-67
2023/08/16 07:35:36;;;;;;;7.15;5.68;;;;;;;;;;5056645;28;20337;-66
2023/08/16 07:38:04;;;;;;;9.68;5.05;;;;;;;;;;5061973;28;20206;-69
2023/08/16 07:40:31;;;;;;;8.57;5.25;;;;;;;;;;5058681;28;20202;-66
2023/08/16 07:42:59;;;;;;;6.18;5.45;;;;;;;;;;5055723;28;20213;-67
2023/08/16 07:45:26;;;;;;;5.68;5.05;;;;;;;;;;5059243;28;20209;-69
2023/08/16 07:47:53;;;;;;;6.30;5.32;;;;;;;;;;5055358;28;20607;-72
2023/08/16 07:50:21;;;;;;;5.55;4.88;;;;;;;;;;5059881;28;20208;-66
2023/08/16 07:52:49;;;;;;;6.65;5.50;;;;;;;;;;5061355;28;20217;-68
2023/08/16 07:55:17;;;;;;;6.35;5.28;;;;;;;;;;5056947;28;20597;-68
2023/08/16 07:57:44;;;;;;;8.75;4.78;;;;;;;;;;5057472;28;20381;-66
2023/08/16 08:00:12;;;;;;;6.10;4.97;;;;;;;;;;5059356;28;20278;-70
2023/08/16 08:02:40;;;;;;;5.38;4.88;;;;;;;;;;5060427;28;20205;-69
2023/08/16 08:05:23;;;;;;;5.35;4.82;;;;;;;;;;5056202;28;20209;-66
2023/08/16 08:07:53;;;;;;;7.85;5.47;;;;;;;;;;5057742;28;20239;-66
2023/08/16 08:10:20;;;;;;;6.40;4.70;;;;;;;;;;5060549;28;20206;-69
2023/08/16 08:12:48;;;;;;;7.53;5.15;;;;;;;;;;5057191;28;20213;-66
2023/08/16 08:15:15;;;;;;;8.73;5.20;;;;;;;;;;5056654;28;20216;-71
2023/08/16 08:17:42;;;;;;;6.05;4.25;;;;;;;;;;5059094;28;20239;-66
2023/08/16 08:20:14;;;;;;;8.35;5.00;;;;;;;;;;5058861;28;20641;-66
2023/08/16 08:22:41;;;;;;;6.03;4.78;;;;;;;;;;5062764;28;20205;-67
2023/08/16 08:25:09;;;;;;;8.35;4.70;;;;;;;;;;5057296;28;20209;-70
2023/08/16 08:27:36;;;;;;;6.85;4.72;;;;;;;;;;5059303;28;20244;-66
2023/08/16 08:30:03;;;;;;;6.32;4.47;;;;;;;;;;5055807;28;20210;-67
2023/08/16 08:32:31;;;;;;;7.70;3.90;;;;;;;;;;5058834;28;20301;-69
2023/08/16 08:34:58;;;;;;;5.20;4.70;;;;;;;;;;5056675;28;20203;-67
2023/08/16 08:37:26;;;;;;;6.43;4.40;;;;;;;;;;5057631;28;20226;-67
2023/08/16 08:39:53;;;;;;;5.32;4.38;;;;;;;;;;5059630;28;20209;-68
2023/08/16 08:42:21;;;;;;;7.03;4.35;;;;;;;;;;5055014;28;20212;-66
2023/08/16 08:44:50;;;;;;;7.35;4.63;;;;;;;;;;5057223;28;20212;-66
2023/08/16 08:47:18;;;;;;;5.47;4.47;;;;;;;;;;5056282;28;20634;-67
2023/08/16 08:49:45;;;;;;;5.15;4.65;;;;;;;;;;5059238;28;20202;-70
2023/08/16 08:52:13;;;;;;;4.55;4.20;;;;;;;;;;5059761;28;20209;-67
2023/08/16 08:54:40;;;;;;;5.03;4.53;;;;;;;;;;5054516;28;20206;-66
2023/08/16 08:57:08;;;;;;;6.40;4.50;;;;;;;;;;5050104;28;20444;-67
2023/08/16 08:59:41;;;;;;;7.97;4.15;;;;;;;;;;5057249;28;20411;-65
2023/08/16 09:02:10;;;;;;;4.65;4.25;;;;;;;;;;5059048;28;20206;-68
2023/08/16 09:04:37;;;;;;;6.93;4.15;;;;;;;;;;5057521;28;20202;-64
2023/08/16 09:07:08;;;;;;;4.75;3.85;;;;;;;;;;5055777;28;20228;-68
2023/08/16 09:09:35;;;;;;;4.30;3.90;;;;;;;;;;5054959;28;20236;-68
2023/08/16 09:12:02;;;;;;;6.03;4.30;;;;;;;;;;5059445;28;20205;-67
2023/08/16 09:14:30;;;;;;;8.15;4.15;;;;;;;;;;5057740;28;20278;-67
2023/08/16 09:16:58;;;;;;;5.60;4.32;;;;;;;;;;5057502;28;20663;-70
2023/08/16 09:19:25;;;;;;;8.45;4.30;;;;;;;;;;5055812;28;20202;-68
2023/08/16 09:21:52;;;;;;;6.88;4.70;;;;;;;;;;5056044;28;20201;-67
2023/08/16 09:24:23;;;;;;;7.22;4.10;;;;;;;;;;5056366;28;20270;-72
2023/08/16 09:26:52;;;;;;;6.30;3.97;;;;;;;;;;5059630;28;20306;-73
2023/08/16 09:29:19;;;;;;;7.35;4.00;;;;;;;;;;5054538;28;20198;-70
2023/08/16 09:31:46;;;;;;;4.97;3.50;;;;;;;;;;5054671;28;20228;-69
2023/08/16 09:34:14;;;;;;;6.32;3.90;;;;;;;;;;5058498;28;20737;-69
2023/08/16 09:36:47;;;;;;;4.10;3.33;;;;;;;;;;5063570;28;20739;-66
2023/08/16 09:39:15;;;;;;;5.07;3.60;;;;;;;;;;5054533;28;20655;-66
2023/08/16 09:41:51;;;;;;;3.60;3.28;;;;;;;;;;5058226;28;20214;-68
2023/08/16 09:44:19;;;;;;;5.68;3.35;;;;;;;;;;5055601;28;20197;-68
2023/08/16 09:46:47;;;;;;;3.70;3.40;;;;;;;;;;5057651;28;20236;-66
2023/08/16 09:49:17;;;;;;;4.45;3.60;;;;;;;;;;5054757;28;21249;-69
2023/08/16 09:51:45;;;;;;;5.18;3.60;;;;;;;;;;5055222;28;20264;-68
2023/08/16 09:54:17;;;;;;;5.03;3.40;;;;;;;;;;5053697;28;20300;-66
2023/08/16 09:56:45;;;;;;;4.40;3.40;;;;;;;;;;5058786;28;20312;-66
2023/08/16 09:59:16;;;;;;;3.75;3.25;;;;;;;;;;5057737;28;20214;-67
2023/08/16 10:01:47;;;;;;;3.60;3.30;;;;;;;;;;5055413;28;20210;-67
2023/08/16 10:04:17;;;;;;;3.53;3.03;;;;;;;;;;5050778;28;20673;-65
2023/08/16 10:06:48;;;;;;;4.05;2.83;;;;;;;;;;5055114;28;20267;-65
2023/08/16 10:09:18;;;;;;;5.53;3.30;;;;;;;;;;5058480;28;20228;-67
2023/08/16 10:11:46;;;;;;;3.78;3.25;;;;;;;;;;5054796;28;20202;-66
2023/08/16 10:14:13;;;;;;;5.18;3.17;;;;;;;;;;5051756;28;20292;-66
2023/08/16 10:16:41;;;;;;;4.55;3.33;;;;;;;;;;5055143;28;20227;-66
2023/08/16 10:19:13;;;;;;;3.88;3.22;;;;;;;;;;5051198;28;20209;-68
2023/08/16 10:21:43;;;;;;;4.50;3.40;;;;;;;;;;5059945;28;20213;-66
2023/08/16 10:24:12;;;;;;;3.55;3.25;;;;;;;;;;5059247;28;20490;-68
2023/08/16 10:26:41;;;;;;;4.45;3.47;;;;;;;;;;5054264;28;20233;-65
2023/08/16 10:29:11;;;;;;;3.25;3.05;;;;;;;;;;5053909;28;20217;-65
2023/08/16 10:31:43;;;;;;;3.33;3.03;;;;;;;;;;5052082;28;20214;-67
2023/08/16 10:34:15;;;;;;;4.38;3.50;;;;;;;;;;5058923;28;20233;-65
2023/08/16 10:36:42;;;;;;;5.03;3.50;;;;;;;;;;5059541;28;20706;-65
2023/08/16 10:39:19;;;;;;;3.67;3.38;;;;;;;;;;5056034;28;20697;-66
2023/08/16 10:41:48;;;;;;;3.75;3.45;;;;;;;;;;5060748;28;20254;-65
2023/08/16 10:44:23;;;;;;;4.13;3.70;;;;;;;;;;5057829;28;20738;-66
2023/08/16 10:46:50;;;;;;;4.20;3.80;;;;;;;;;;5056907;28;20224;-66
2023/08/16 10:49:18;;;;;;;4.13;3.50;;;;;;;;;;5060595;28;20201;-66
2023/08/16 10:51:46;;;;;;;6.78;3.10;;;;;;;;;;5051779;28;20209;-65
2023/08/16 10:54:15;;;;;;;5.88;3.28;;;;;;;;;;5056763;28;20236;-66
2023/08/16 10:56:48;;;;;;;5.65;3.42;;;;;;;;;;5051734;28;20215;-65
2023/08/16 10:59:15;;;;;;;3.50;3.20;;;;;;;;;;5057156;28;20209;-65
2023/08/16 11:01:47;;;;;;;4.13;3.72;;;;;;;;;;5061937;28;20201;-65
2023/08/16 11:04:15;;;;;;;3.92;3.08;;;;;;;;;;5054940;28;20209;-71
2023/08/16 11:06:46;;;;;;;3.53;3.22;;;;;;;;;;5064078;28;20701;-65
2023/08/16 11:09:29;;;;;;;5.32;3.42;;;;;;;;;;5054774;28;20213;-68
2023/08/16 11:12:02;;;;;;;3.90;3.10;;;;;;;;;;5059733;28;20292;-69
2023/08/16 11:14:29;;;;;;;5.10;3.40;;;;;;;;;;5055298;28;20230;-67
2023/08/16 11:16:57;;;;;;;5.40;3.15;;;;;;;;;;5057600;28;20228;-65
2023/08/16 11:19:25;;;;;;;5.25;3.45;;;;;;;;;;5060195;28;20251;-68
2023/08/16 11:21:52;;;;;;;3.85;3.55;;;;;;;;;;5056434;28;20198;-67
2023/08/16 11:24:23;;;;;;;4.13;3.45;;;;;;;;;;5058776;28;20201;-68
2023/08/16 11:26:53;;;;;;;3.35;3.05;;;;;;;;;;5074670;28;20221;-65
2023/08/16 11:29:20;;;;;;;3.38;2.92;;;;;;;;;;5054798;28;20339;-67
2023/08/16 11:31:50;;;;;;;6.13;3.55;;;;;;;;;;5060798;28;20205;-66
2023/08/16 11:34:18;;;;;;;3.85;3.17;;;;;;;;;;5061401;28;20590;-67
2023/08/16 11:36:46;;;;;;;3.45;2.78;;;;;;;;;;5058286;28;20251;-67
2023/08/16 11:39:13;;;;;;;4.88;3.22;;;;;;;;;;5058652;28;20209;-65
2023/08/16 11:41:41;;;;;;;3.60;3.03;;;;;;;;;;5055946;28;20295;-67
2023/08/16 11:44:08;;;;;;;4.57;3.38;;;;;;;;;;5056924;28;20205;-68
2023/08/16 11:46:43;;;;;;;4.25;3.05;;;;;;;;;;5055607;28;21210;-64
2023/08/16 11:49:12;;;;;;;3.42;3.13;;;;;;;;;;5057361;28;20228;-67
2023/08/16 11:51:40;;;;;;;4.47;3.70;;;;;;;;;;5058424;28;20212;-66
2023/08/16 11:54:08;;;;;;;5.15;3.53;;;;;;;;;;5058110;28;20275;-66
2023/08/16 11:56:36;;;;;;;3.10;2.83;;;;;;;;;;5059509;28;20650;-66
2023/08/16 11:59:03;;;;;;;3.38;3.08;;;;;;;;;;5058957;28;20277;-65
2023/08/16 12:01:30;;;;;;;4.20;3.20;;;;;;;;;;5061452;28;20335;-68
2023/08/16 12:04:01;;;;;;;3.47;2.97;;;;;;;;;;5059846;28;20220;-67
2023/08/16 12:06:28;;;;;;;3.35;3.00;;;;;;;;;;5055858;28;20220;-68
2023/08/16 12:08:56;;;;;;;3.30;3.00;;;;;;;;;;5052474;28;20213;-66
2023/08/16 12:11:32;;;;;;;4.00;2.95;;;;;;;;;;5060460;28;20297;-68
2023/08/16 12:14:01;;;;;;;4.38;3.30;;;;;;;;;;5057371;28;20287;-65
2023/08/16 12:16:31;;;;;;;6.13;3.28;;;;;;;;;;5053999;28;20229;-67
2023/08/16 12:18:59;;;;;;;4.95;2.92;;;;;;;;;;5055540;28;20294;-70
2023/08/16 12:21:26;;;;;;;4.43;2.65;;;;;;;;;;5062109;28;20284;-66
2023/08/16 12:23:53;;;;;;;5.45;3.03;;;;;;;;;;5057642;28;20621;-69
2023/08/16 12:26:21;;;;;;;5.53;3.10;;;;;;;;;;5056897;28;20236;-65
2023/08/16 12:28:48;;;;;;;4.60;3.03;;;;;;;;;;5053587;28;20275;-66
2023/08/16 12:31:15;;;;;;;3.42;2.55;;;;;;;;;;5055480;28;20443;-67
2023/08/16 12:33:43;;;;;;;2.72;2.42;;;;;;;;;;5059812;28;20217;-66
2023/08/16 12:36:13;;;;;;;4.13;2.80;;;;;;;;;;5056594;28;20224;-66
2023/08/16 12:38:42;;;;;;;3.05;2.60;;;;;;;;;;5055894;28;20201;-67
2023/08/16 12:41:09;;;;;;;4.07;2.53;;;;;;;;;;5053525;28;20581;-65
2023/08/16 12:43:36;;;;;;;3.75;2.80;;;;;;;;;;5052324;28;20209;-66
2023/08/16 12:46:08;;;;;;;3.05;2.40;;;;;;;;;;5053468;28;20275;-71
2023/08/16 12:48:36;;;;;;;3.45;2.20;;;;;;;;;;5054680;28;20291;-67
2023/08/16 12:51:03;;;;;;;3.55;2.60;;;;;;;;;;5055866;28;20595;-65
2023/08/16 12:53:31;;;;;;;2.85;2.45;;;;;;;;;;5056560;28;20248;-66
2023/08/16 12:56:04;;;;;;;2.72;2.40;;;;;;;;;;5053742;28;20222;-67
2023/08/16 12:58:31;;;;;;;3.67;2.58;;;;;;;;;;5058023;28;20201;-69
2023/08/16 13:01:01;;;;;;;2.65;2.45;;;;;;;;;;5055646;28;20222;-68
2023/08/16 13:03:31;;;;;;;4.70;2.40;;;;;;;;;;5059400;28;20232;-72
2023/08/16 13:06:01;;;;;;;2.67;2.35;;;;;;;;;;5057203;28;20229;-65
2023/08/16 13:08:31;;;;;;;3.15;2.47;;;;;;;;;;5055751;28;20216;-68
2023/08/16 13:10:58;;;;;;;2.75;2.20;;;;;;;;;;5052242;28;20405;-67
2023/08/16 13:13:34;;;;;;;5.70;2.38;;;;;;;;;;5056540;28;20675;-71
2023/08/16 13:16:01;;;;;;;3.60;2.00;;;;;;;;;;5053057;28;20590;-66
2023/08/16 13:18:31;;;;;;;2.60;2.30;;;;;;;;;;5055051;28;20212;-64
2023/08/16 13:21:01;;;;;;;;;;;;;;;;;;5052207;28;19928;-68
2023/08/16 13:23:45;;;;;;;;;;;;;;;;;;5054782;28;19931;-67
2023/08/16 13:26:25;;;;;;;;;;;;;;;;;;5055576;28;19929;-68
2023/08/16 13:28:56;;;;;;;;;;;;;;;;;;5057547;28;19986;-65
2023/08/16 13:31:36;;;;;;;;;;;;;;;;;;5056506;28;20495;-65
2023/08/16 13:34:23;;;;;;;;;;;;;;;;;;5058484;28;20358;-66
2023/08/16 13:36:53;;;;;;;;;;;;;;;;;;5054424;28;19932;-69
2023/08/16 13:39:23;;;;;;;;;;;;;;;;;;5056712;28;19932;-66
2023/08/16 13:41:57;;;;;;;;;;;;;;;;;;5055429;28;19998;-66
2023/08/16 13:44:27;;;;;;;;;;;;;;;;;;5056147;28;19927;-67
2023/08/16 13:47:14;;;;;;;;;;;;;;;;;;5055731;28;20087;-66
2023/08/16 13:49:43;;;;;;;;;;;;;;;;;;5057742;28;19924;-65
2023/08/16 13:52:10;;;;;;;;;;;;;;;;;;5057370;28;19925;-67
2023/08/16 13:54:37;;;;;;;;;;;;;;;;;;5056507;28;19924;-67
2023/08/16 13:57:04;;;;;;;;;;;;;;;;;;5054522;28;20368;-67
2023/08/16 13:59:31;;;;;;;;;;;;;;;;;;5067572;28;19970;-67
2023/08/16 14:01:59;;;;;;;;;;;;;;;;;;5056348;28;20383;-71
2023/08/16 14:04:26;;;;;;;;;;;;;;;;;;5054716;28;19977;-69
2023/08/16 14:06:53;;;;;;;;;;;;;;;;;;5055624;28;19921;-70
2023/08/16 14:09:20;;;;;;;;;;;;;;;;;;5052564;28;19974;-68
2023/08/16 14:11:47;;;;;;;;;;;;;;;;;;5056097;28;20353;-65
2023/08/16 14:14:14;;;;;;;;;;;;;;;;;;5058817;28;19939;-66
2023/08/16 14:16:42;;;;;;;;;;;;;;;;;;5056899;28;19924;-67
2023/08/16 14:19:09;;;;;;;;;;;;;;;;;;5058509;28;19921;-68
2023/08/16 14:21:36;;;;;;;;;;;;;;;;;;5057588;28;21184;-64
2023/08/16 14:24:07;;;;;;;;;;;;;;;;;;5059434;28;20287;-69
2023/08/16 14:26:35;;;;;;;;;;;;;;;;;;5057848;28;19924;-70
2023/08/16 14:29:04;;;;;;;;;;;;;;;;;;5064202;28;19970;-69
2023/08/16 14:31:32;;;;;;;;;;;;;;;;;;5064405;28;19932;-67
2023/08/16 14:33:59;;;;;;;;;;;;;;;;;;5056930;28;19932;-67
2023/08/16 14:36:26;;;;;;;;;;;;;;;;;;5055975;28;19928;-67
2023/08/16 14:38:53;;;;;;;;;;;;;;;;;;5059498;28;20302;-70
2023/08/16 14:41:26;;;;;;;;;;;;;;;;;;5059435;28;19932;-67
2023/08/16 14:43:53;;;;;;;;;;;;;;;;;;5058857;28;20110;-71
2023/08/16 14:46:21;;;;;;;;;;;;;;;;;;5056566;28;19928;-66
2023/08/16 14:48:49;;;;;;;;;;;;;;;;;;5061513;28;19967;-66
2023/08/16 14:51:16;;;;;;;;;;;;;;;;;;5061183;28;19928;-68
2023/08/16 14:53:43;;;;;;;;;;;;;;;;;;5054294;28;19920;-67
2023/08/16 14:56:11;;;;;;;;;;;;;;;;;;5061977;28;20345;-68
2023/08/16 14:58:38;;;;;;;;;;;;;;;;;;5058667;28;19928;-67
2023/08/16 15:01:06;;;;;;;;;;;;;;;;;;5069085;28;20008;-70